createdAt,value
2022-11-29T00:01:43.219Z,96639.03
2022-11-29T00:04:12.472Z,96640.94
2022-11-29T00:06:41.073Z,96641.50
2022-11-29T00:09:14.374Z,96641.66
2022-11-29T00:12:01.425Z,96638.66
2022-11-29T00:14:30.929Z,96637.63
2022-11-29T00:17:02.483Z,96632.16
2022-11-29T00:19:31.922Z,96635.97
2022-11-29T00:22:00.939Z,96643.72
2022-11-29T00:24:32.616Z,96629.50
2022-11-29T00:27:01.751Z,96631.16
2022-11-29T00:29:31.500Z,96621.53
2022-11-29T00:32:00.580Z,96630.13
2022-11-29T00:34:29.369Z,96629.84
2022-11-29T00:36:57.766Z,96624.78
2022-11-29T00:39:26.228Z,96618.13
2022-11-29T00:41:56.251Z,96615.53
2022-11-29T00:44:24.540Z,96624.34
2022-11-29T00:46:52.769Z,96626.16
2022-11-29T00:49:21.062Z,96624.59
2022-11-29T00:51:49.493Z,96612.28
2022-11-29T00:54:18.881Z,96612.66
2022-11-29T00:56:47.142Z,96628.44
2022-11-29T00:59:17.005Z,96625.94
2022-11-29T01:01:45.450Z,96642.38
2022-11-29T01:04:13.918Z,96620.97
2022-11-29T01:06:42.332Z,96608.16
2022-11-29T01:09:10.864Z,96615.78
2022-11-29T01:11:40.308Z,96620.59
2022-11-29T01:14:08.733Z,96620.25
2022-11-29T01:16:38.470Z,96626.00
2022-11-29T01:19:08.027Z,96626.31
2022-11-29T01:21:36.480Z,96614.28
2022-11-29T01:26:05.142Z,96619.03
2022-11-29T01:28:33.742Z,96621.94
2022-11-29T01:31:08.499Z,96622.16
2022-11-29T01:33:38.123Z,96628.22
2022-11-29T01:36:08.422Z,96636.97
2022-11-29T01:38:37.700Z,96625.72
2022-11-29T01:41:09.924Z,96631.28
2022-11-29T01:43:57.950Z,96632.84
2022-11-29T01:46:27.088Z,96629.00
2022-11-29T01:49:00.961Z,96628.69
2022-11-29T01:51:30.446Z,96624.94
2022-11-29T01:53:59.564Z,96630.94
2022-11-29T01:56:31.337Z,96636.69
2022-11-29T01:58:59.650Z,96628.41
2022-11-29T02:01:28.194Z,96620.84
2022-11-29T02:03:56.929Z,96623.16
2022-11-29T02:06:26.431Z,96628.22
2022-11-29T02:08:56.520Z,96636.72
2022-11-29T02:12:07.594Z,96623.88
2022-11-29T02:14:54.238Z,96625.78
2022-11-29T02:17:31.896Z,96618.19
2022-11-29T02:20:43.890Z,96622.63
2022-11-29T02:23:40.752Z,96623.59
2022-11-29T02:26:23.707Z,96619.53
2022-11-29T02:29:58.538Z,96628.50
2022-11-29T02:33:33.443Z,96631.50
2022-11-29T02:36:34.424Z,96621.88
2022-11-29T02:39:48.102Z,96629.44
2022-11-29T02:42:56.099Z,96628.56
2022-11-29T02:45:39.524Z,96629.44
2022-11-29T02:48:42.529Z,96626.81
2022-11-29T02:51:19.016Z,96631.50
2022-11-29T02:53:58.386Z,96638.00
2022-11-29T02:56:35.542Z,96626.63
2022-11-29T02:59:12.902Z,96630.56
2022-11-29T03:01:50.685Z,96629.00
2022-11-29T03:04:30.016Z,96629.06
2022-11-29T03:07:06.219Z,96635.63
2022-11-29T03:09:41.186Z,96637.88
2022-11-29T03:12:20.379Z,96640.00
2022-11-29T03:15:00.649Z,96638.59
2022-11-29T03:17:39.008Z,96637.38
2022-11-29T03:20:29.958Z,96633.59
2022-11-29T03:23:16.157Z,96645.53
2022-11-29T03:25:50.308Z,96636.97
2022-11-29T03:28:23.465Z,96635.34
2022-11-29T03:31:00.375Z,96636.50
2022-11-29T03:33:40.378Z,96650.06
2022-11-29T03:36:16.259Z,96643.13
2022-11-29T03:38:47.116Z,96654.09
2022-11-29T03:41:25.488Z,96644.34
2022-11-29T03:44:08.304Z,96649.88
2022-11-29T03:46:43.709Z,96652.72
2022-11-29T03:49:19.751Z,96643.53
2022-11-29T03:52:02.289Z,96641.72
2022-11-29T03:54:41.675Z,96646.16
2022-11-29T03:57:10.847Z,96646.94
2022-11-29T03:59:53.635Z,96659.25
2022-11-29T04:03:06.554Z,96660.22
2022-11-29T04:06:05.450Z,96647.69
2022-11-29T04:09:25.723Z,96652.03
2022-11-29T04:12:46.391Z,96662.81
2022-11-29T04:15:56.846Z,96650.97
2022-11-29T04:19:06.842Z,96651.94
2022-11-29T04:22:16.864Z,96649.66
2022-11-29T04:25:42.730Z,96650.22
2022-11-29T04:28:39.491Z,96662.94
2022-11-29T04:31:18.780Z,96662.34
2022-11-29T04:34:34.005Z,96662.56
2022-11-29T04:37:23.242Z,96656.81
2022-11-29T04:40:05.487Z,96653.47
2022-11-29T04:43:11.577Z,96660.34
2022-11-29T04:46:25.662Z,96661.91
2022-11-29T04:49:21.793Z,96661.47
2022-11-29T04:52:11.888Z,96661.88
2022-11-29T04:54:48.504Z,96665.69
2022-11-29T04:57:28.798Z,96670.72
2022-11-29T05:00:09.797Z,96669.09
2022-11-29T05:02:48.137Z,96673.44
2022-11-29T05:05:31.123Z,96673.59
2022-11-29T05:08:21.240Z,96683.09
2022-11-29T05:11:01.213Z,96677.22
2022-11-29T05:13:40.368Z,96675.44
2022-11-29T05:16:21.353Z,96677.50
2022-11-29T05:19:29.575Z,96689.66
2022-11-29T05:22:11.644Z,96689.69
2022-11-29T05:24:54.770Z,96699.31
2022-11-29T05:27:38.051Z,96696.59
2022-11-29T05:30:12.934Z,96694.91
2022-11-29T05:32:56.810Z,96694.41
2022-11-29T05:35:54.604Z,96693.72
2022-11-29T05:38:48.668Z,96704.25
2022-11-29T05:41:49.449Z,96697.00
2022-11-29T05:44:25.929Z,96698.16
2022-11-29T05:46:58.344Z,96713.38
2022-11-29T05:49:40.235Z,96709.41
2022-11-29T05:52:24.455Z,96718.19
2022-11-29T05:55:11.707Z,96716.31
2022-11-29T05:57:49.597Z,96706.31
2022-11-29T06:00:20.520Z,96712.16
2022-11-29T06:02:59.640Z,96713.00
2022-11-29T06:05:37.962Z,96716.19
2022-11-29T06:08:12.463Z,96715.44
2022-11-29T06:10:55.285Z,96713.66
2022-11-29T06:13:39.694Z,96715.81
2022-11-29T06:16:46.894Z,96710.88
2022-11-29T06:20:09.086Z,96722.84
2022-11-29T06:23:23.801Z,96721.56
2022-11-29T06:26:13.994Z,96723.69
2022-11-29T06:28:57.642Z,96723.53
2022-11-29T06:31:31.107Z,96721.28
2022-11-29T06:34:08.569Z,96728.97
2022-11-29T06:36:43.867Z,96731.56
2022-11-29T06:39:14.637Z,96729.63
2022-11-29T06:41:42.969Z,96729.16
2022-11-29T06:44:12.243Z,96730.59
2022-11-29T06:46:47.606Z,96745.00
2022-11-29T06:49:24.094Z,96732.19
2022-11-29T06:52:04.906Z,96731.66
2022-11-29T06:54:54.993Z,96747.97
2022-11-29T06:57:31.546Z,96738.91
2022-11-29T07:00:09.013Z,96729.47
2022-11-29T07:02:57.328Z,96746.13
2022-11-29T07:05:29.966Z,96746.06
2022-11-29T07:08:02.351Z,96742.97
2022-11-29T07:10:36.376Z,96747.00
2022-11-29T07:13:05.711Z,96753.94
2022-11-29T07:15:34.815Z,96749.78
2022-11-29T07:18:29.817Z,96763.09
2022-11-29T07:21:10.808Z,96757.59
2022-11-29T07:23:49.713Z,96759.44
2022-11-29T07:26:26.956Z,96751.59
2022-11-29T07:29:09.042Z,96764.25
2022-11-29T07:31:53.186Z,96771.66
2022-11-29T07:34:32.522Z,96763.22
2022-11-29T07:37:08.404Z,96764.53
2022-11-29T07:39:49.738Z,96767.88
2022-11-29T07:42:27.976Z,96760.44
2022-11-29T07:45:05.484Z,96765.97
2022-11-29T07:47:35.897Z,96771.16
2022-11-29T07:50:06.485Z,96760.28
2022-11-29T07:52:36.660Z,96771.59
2022-11-29T07:55:06.447Z,96780.13
2022-11-29T07:57:36.954Z,96773.00
2022-11-29T08:00:07.311Z,96770.81
2022-11-29T08:02:45.405Z,96774.34
2022-11-29T08:05:14.339Z,96772.13
2022-11-29T08:07:43.648Z,96776.97
2022-11-29T08:10:15.432Z,96780.50
2022-11-29T08:12:48.239Z,96778.19
2022-11-29T08:15:17.772Z,96783.56
2022-11-29T08:17:46.176Z,96785.09
2022-11-29T08:20:17.688Z,96796.84
2022-11-29T08:22:46.057Z,96789.47
2022-11-29T08:25:14.374Z,96793.22
2022-11-29T08:27:44.120Z,96790.94
2022-11-29T08:30:13.020Z,96791.75
2022-11-29T08:32:41.287Z,96802.22
2022-11-29T08:35:10.552Z,96798.34
2022-11-29T08:37:38.871Z,96795.44
2022-11-29T08:40:09.316Z,96799.34
2022-11-29T08:42:37.672Z,96790.69
2022-11-29T08:45:09.761Z,96801.66
2022-11-29T08:47:38.482Z,96801.31
2022-11-29T08:50:12.190Z,96805.63
2022-11-29T08:53:00.535Z,96818.03
2022-11-29T08:55:33.143Z,96808.13
2022-11-29T08:58:07.374Z,96805.72
2022-11-29T09:00:39.550Z,96808.38
2022-11-29T09:03:26.496Z,96804.66
2022-11-29T09:05:55.308Z,96814.63
2022-11-29T09:08:23.646Z,96810.75
2022-11-29T09:10:53.317Z,96812.28
2022-11-29T09:13:21.626Z,96808.22
2022-11-29T09:15:51.300Z,96816.25
2022-11-29T09:18:19.642Z,96819.06
2022-11-29T09:20:47.935Z,96820.72
2022-11-29T09:23:16.237Z,96810.63
2022-11-29T09:25:50.052Z,96819.25
2022-11-29T09:28:18.505Z,96819.91
2022-11-29T09:30:46.853Z,96829.91
2022-11-29T09:33:17.418Z,96832.06
2022-11-29T09:35:46.064Z,96830.66
2022-11-29T09:38:15.819Z,96830.50
2022-11-29T09:40:51.454Z,96831.50
2022-11-29T09:43:28.571Z,96834.34
2022-11-29T09:46:04.408Z,96838.41
2022-11-29T09:49:00.497Z,96840.34
2022-11-29T09:51:34.140Z,96831.78
2022-11-29T09:54:18.749Z,96839.78
2022-11-29T09:56:50.919Z,96831.63
2022-11-29T09:59:25.897Z,96835.38
2022-11-29T10:02:00.546Z,96832.63
2022-11-29T10:04:37.268Z,96833.88
2022-11-29T10:07:12.520Z,96838.97
2022-11-29T10:09:47.178Z,96837.84
2022-11-29T10:12:23.420Z,96836.69
2022-11-29T10:14:56.042Z,96836.13
2022-11-29T10:17:36.087Z,96832.97
2022-11-29T10:20:14.261Z,96829.81
2022-11-29T10:22:53.423Z,96837.25
2022-11-29T10:25:27.031Z,96833.81
2022-11-29T10:27:55.982Z,96823.25
2022-11-29T10:30:24.414Z,96823.06
2022-11-29T10:32:57.863Z,96823.69
2022-11-29T10:35:29.432Z,96835.19
2022-11-29T10:40:58.935Z,96833.94
2022-11-29T10:43:27.879Z,96826.13
2022-11-29T10:45:57.084Z,96832.78
2022-11-29T10:48:31.876Z,96829.03
2022-11-29T10:51:03.617Z,96830.75
2022-11-29T10:53:37.501Z,96831.88
2022-11-29T10:56:10.552Z,96828.47
2022-11-29T10:58:57.288Z,96818.94
2022-11-29T11:01:29.048Z,96826.59
2022-11-29T11:03:59.747Z,96831.22
2022-11-29T11:06:45.784Z,96828.94
2022-11-29T11:09:21.505Z,96831.44
2022-11-29T11:11:54.342Z,96831.88
2022-11-29T11:14:25.116Z,96827.63
2022-11-29T11:16:54.034Z,96821.22
2022-11-29T11:19:29.649Z,96828.47
2022-11-29T11:22:02.246Z,96820.31
2022-11-29T11:24:33.210Z,96824.53
2022-11-29T11:27:02.645Z,96828.38
2022-11-29T11:29:37.389Z,96822.47
2022-11-29T11:32:08.926Z,96818.50
2022-11-29T11:34:38.990Z,96832.75
2022-11-29T11:37:24.092Z,96815.53
2022-11-29T11:39:55.729Z,96829.94
2022-11-29T11:42:39.896Z,96827.00
2022-11-29T11:45:28.812Z,96831.56
2022-11-29T11:48:00.120Z,96837.28
2022-11-29T11:50:33.577Z,96840.25
2022-11-29T11:53:08.200Z,96833.97
2022-11-29T11:55:40.924Z,96825.34
2022-11-29T11:58:19.165Z,96833.75
2022-11-29T12:01:07.126Z,96826.59
2022-11-29T12:03:50.922Z,96832.19
2022-11-29T12:06:36.566Z,96832.78
2022-11-29T12:09:19.298Z,96845.47
2022-11-29T12:12:00.101Z,96832.69
2022-11-29T12:14:40.207Z,96835.16
2022-11-29T12:17:24.233Z,96839.91
2022-11-29T12:20:21.751Z,96844.72
2022-11-29T12:23:14.612Z,96844.31
2022-11-29T12:25:50.725Z,96842.22
2022-11-29T12:28:21.883Z,96840.91
2022-11-29T12:31:00.071Z,96851.28
2022-11-29T12:33:40.657Z,96846.63
2022-11-29T12:36:23.320Z,96852.56
2022-11-29T12:39:18.287Z,96855.09
2022-11-29T12:41:55.869Z,96845.31
2022-11-29T12:44:41.071Z,96853.59
2022-11-29T12:47:35.583Z,96843.34
2022-11-29T12:50:17.788Z,96839.06
2022-11-29T12:52:56.995Z,96851.53
2022-11-29T12:55:31.627Z,96849.75
2022-11-29T12:58:08.230Z,96851.06
2022-11-29T13:00:45.086Z,96847.03
2022-11-29T13:03:23.210Z,96845.94
2022-11-29T13:06:04.704Z,96846.13
2022-11-29T13:08:55.338Z,96851.78
2022-11-29T13:11:29.029Z,96849.47
2022-11-29T13:14:40.832Z,96850.44
2022-11-29T13:17:01.533Z,96854.88
2022-11-29T13:19:38.997Z,96850.94
2022-11-29T13:22:17.923Z,96862.16
2022-11-29T13:24:52.982Z,96856.69
2022-11-29T13:27:27.860Z,96862.13
2022-11-29T13:29:58.541Z,96862.06
2022-11-29T13:32:36.252Z,96853.59
2022-11-29T13:35:13.161Z,96861.47
2022-11-29T13:37:53.558Z,96853.81
2022-11-29T13:40:36.653Z,96855.06
2022-11-29T13:43:16.097Z,96855.81
2022-11-29T13:45:53.614Z,96856.25
2022-11-29T13:48:37.977Z,96852.41
2022-11-29T13:51:41.134Z,96854.59
2022-11-29T13:54:31.215Z,96858.38
2022-11-29T13:57:06.358Z,96862.25
2022-11-29T13:59:44.137Z,96852.56
2022-11-29T14:02:31.104Z,96855.31
2022-11-29T14:04:59.892Z,96867.88
2022-11-29T14:07:28.229Z,96860.06
2022-11-29T14:10:00.529Z,96866.22
2022-11-29T14:12:39.296Z,96862.31
2022-11-29T14:15:22.913Z,96864.00
2022-11-29T14:17:56.131Z,96866.13
2022-11-29T14:20:59.150Z,96870.78
2022-11-29T14:23:40.495Z,96865.59
2022-11-29T14:26:28.825Z,96868.47
2022-11-29T14:28:59.145Z,96871.22
2022-11-29T14:31:55.469Z,96874.88
2022-11-29T14:34:39.982Z,96876.13
2022-11-29T14:37:26.180Z,96871.69
2022-11-29T14:39:59.439Z,96871.50
2022-11-29T14:42:29.239Z,96872.03
2022-11-29T14:45:01.395Z,96885.41
2022-11-29T14:47:34.439Z,96876.78
2022-11-29T14:50:10.475Z,96885.25
2022-11-29T14:52:41.616Z,96877.25
2022-11-29T14:55:31.082Z,96876.44
2022-11-29T14:58:24.477Z,96872.28
2022-11-29T15:01:10.609Z,96885.34
2022-11-29T15:03:48.432Z,96872.69
2022-11-29T15:06:25.983Z,96887.47
2022-11-29T15:09:05.761Z,96880.28
2022-11-29T15:11:51.930Z,96885.25
2022-11-29T15:14:30.607Z,96878.28
2022-11-29T15:17:17.465Z,96883.13
2022-11-29T15:20:26.311Z,96894.44
2022-11-29T15:22:58.349Z,96888.63
2022-11-29T15:25:31.895Z,96891.69
2022-11-29T15:28:03.504Z,96896.38
2022-11-29T15:30:36.123Z,96894.59
2022-11-29T15:33:07.571Z,96898.47
2022-11-29T15:35:37.501Z,96892.56
2022-11-29T15:38:07.204Z,96895.59
2022-11-29T15:40:39.558Z,96900.94
2022-11-29T15:43:21.547Z,96898.50
2022-11-29T15:45:51.501Z,96906.56
2022-11-29T15:48:25.884Z,96896.69
2022-11-29T15:51:04.151Z,96905.13
2022-11-29T15:53:38.287Z,96899.28
2022-11-29T15:56:15.112Z,96903.16
2022-11-29T15:58:45.828Z,96903.38
2022-11-29T16:01:23.632Z,96918.06
2022-11-29T16:03:58.412Z,96909.53
2022-11-29T16:06:33.415Z,96911.78
2022-11-29T16:09:05.373Z,96909.25
2022-11-29T16:11:35.232Z,96915.06
2022-11-29T16:14:19.566Z,96916.28
2022-11-29T16:16:52.701Z,96907.25
2022-11-29T16:19:31.259Z,96913.72
2022-11-29T16:22:04.286Z,96912.91
2022-11-29T16:24:44.342Z,96914.47
2022-11-29T16:27:18.129Z,96926.09
2022-11-29T16:29:48.578Z,96921.19
2022-11-29T16:32:33.990Z,96925.88
2022-11-29T16:35:20.558Z,96928.72
2022-11-29T16:37:50.288Z,96933.16
2022-11-29T16:40:26.085Z,96927.03
2022-11-29T16:43:24.075Z,96932.28
2022-11-29T16:46:38.321Z,96940.56
2022-11-29T16:49:36.023Z,96934.38
2022-11-29T16:52:24.136Z,96936.44
2022-11-29T16:54:53.055Z,96938.31
2022-11-29T16:57:23.361Z,96937.59
2022-11-29T16:59:52.309Z,96940.66
2022-11-29T17:02:20.741Z,96938.13
2022-11-29T17:04:49.230Z,96944.28
2022-11-29T17:07:24.677Z,96947.13
2022-11-29T17:09:53.729Z,96943.38
2022-11-29T17:12:23.384Z,96949.94
2022-11-29T17:14:51.812Z,96942.41
2022-11-29T17:17:38.855Z,96944.31
2022-11-29T17:20:15.791Z,96940.84
2022-11-29T17:23:02.437Z,96937.06
2022-11-29T17:25:31.877Z,96946.09
2022-11-29T17:28:01.638Z,96944.00
2022-11-29T17:30:31.816Z,96949.81
2022-11-29T17:33:00.142Z,96948.84
2022-11-29T17:35:28.546Z,96943.75
2022-11-29T17:37:57.003Z,96955.25
2022-11-29T17:40:25.407Z,96955.09
2022-11-29T17:42:54.549Z,96956.59
2022-11-29T17:45:24.208Z,96951.72
2022-11-29T17:47:52.884Z,96958.84
2022-11-29T17:50:21.249Z,96952.88
2022-11-29T17:52:49.508Z,96961.59
2022-11-29T17:55:20.678Z,96957.75
2022-11-29T17:57:50.348Z,96952.56
2022-11-29T18:00:20.596Z,96975.22
2022-11-29T18:02:50.499Z,96966.84
2022-11-29T18:05:18.788Z,96958.25
2022-11-29T18:07:58.929Z,96965.06
2022-11-29T18:10:28.958Z,96973.59
2022-11-29T18:12:58.438Z,96972.22
2022-11-29T18:15:26.776Z,96969.22
2022-11-29T18:17:56.501Z,96971.63
2022-11-29T18:20:24.814Z,96970.22
2022-11-29T18:22:53.336Z,96971.50
2022-11-29T18:25:39.131Z,96977.63
2022-11-29T18:28:11.268Z,96977.66
2022-11-29T18:30:39.805Z,96989.09
2022-11-29T18:33:09.709Z,96982.03
2022-11-29T18:35:38.024Z,96981.03
2022-11-29T18:38:15.374Z,96983.88
2022-11-29T18:40:45.766Z,96986.22
2022-11-29T18:43:17.519Z,96983.75
2022-11-29T18:45:46.007Z,96988.69
2022-11-29T18:48:17.108Z,96978.81
2022-11-29T18:50:45.511Z,96995.94
2022-11-29T18:53:14.864Z,96984.38
2022-11-29T18:55:43.150Z,96994.00
2022-11-29T18:58:11.669Z,96990.31
2022-11-29T19:00:40.840Z,96995.81
2022-11-29T19:03:09.211Z,96999.59
2022-11-29T19:05:38.900Z,96993.25
2022-11-29T19:08:07.268Z,96988.25
2022-11-29T19:10:38.672Z,97005.13
2022-11-29T19:13:09.660Z,96986.72
2022-11-29T19:15:38.076Z,96988.75
2022-11-29T19:18:06.692Z,96992.94
2022-11-29T19:20:35.055Z,96995.56
2022-11-29T19:23:07.549Z,96992.25
2022-11-29T19:25:36.161Z,96992.13
2022-11-29T19:28:09.094Z,97001.16
2022-11-29T19:30:41.104Z,96998.47
2022-11-29T19:33:09.704Z,96998.84
2022-11-29T19:35:38.287Z,97000.69
2022-11-29T19:38:08.005Z,96993.28
2022-11-29T19:40:36.402Z,97000.41
2022-11-29T19:43:04.737Z,96994.91
2022-11-29T19:45:33.821Z,97003.31
2022-11-29T19:48:02.245Z,97000.72
2022-11-29T19:50:30.778Z,97003.59
2022-11-29T19:52:59.436Z,97007.97
2022-11-29T19:55:29.246Z,97003.94
2022-11-29T19:57:57.948Z,97005.84
2022-11-29T20:00:26.621Z,97001.25
2022-11-29T20:02:55.193Z,96995.22
2022-11-29T20:05:23.637Z,97010.47
2022-11-29T20:07:52.124Z,97000.31
2022-11-29T20:10:20.929Z,97006.88
2022-11-29T20:12:51.106Z,96992.66
2022-11-29T20:15:20.515Z,97002.16
2022-11-29T20:17:49.396Z,97005.25
2022-11-29T20:20:18.049Z,97004.78
2022-11-29T20:22:46.541Z,97016.28
2022-11-29T20:25:14.942Z,97010.50
2022-11-29T20:27:43.340Z,97021.19
2022-11-29T20:30:15.890Z,97015.31
2022-11-29T20:32:44.944Z,97017.94
2022-11-29T20:35:15.960Z,97015.59
2022-11-29T20:38:15.325Z,97015.88
2022-11-29T20:41:02.468Z,97017.59
2022-11-29T20:43:45.611Z,97026.38
2022-11-29T20:46:16.394Z,97026.53
2022-11-29T20:48:45.499Z,97035.06
2022-11-29T20:51:15.122Z,97024.75
2022-11-29T20:53:46.242Z,97023.38
2022-11-29T20:56:14.796Z,97023.91
2022-11-29T20:58:43.325Z,97019.78
2022-11-29T21:01:12.049Z,97031.00
2022-11-29T21:03:42.032Z,97028.81
2022-11-29T21:06:10.660Z,97020.38
2022-11-29T21:08:39.237Z,97021.47
2022-11-29T21:11:11.133Z,97032.41
2022-11-29T21:13:40.777Z,97032.22
2022-11-29T21:16:12.911Z,97027.47
2022-11-29T21:18:44.385Z,97038.47
2022-11-29T21:21:25.525Z,97035.28
2022-11-29T21:24:02.725Z,97031.63
2022-11-29T21:26:41.375Z,97035.31
2022-11-29T21:29:17.406Z,97029.38
2022-11-29T21:31:48.017Z,97034.34
2022-11-29T21:34:17.924Z,97036.19
2022-11-29T21:36:49.500Z,97043.34
2022-11-29T21:39:18.215Z,97041.78
2022-11-29T21:41:46.978Z,97041.13
2022-11-29T21:44:15.875Z,97038.44
2022-11-29T21:46:45.533Z,97026.38
2022-11-29T21:49:14.976Z,97030.81
2022-11-29T21:51:44.999Z,97029.81
2022-11-29T21:54:18.282Z,97043.94
2022-11-29T21:56:46.762Z,97033.03
2022-11-29T21:59:18.573Z,97043.16
2022-11-29T22:01:47.419Z,97034.44
2022-11-29T22:04:18.188Z,97034.66
2022-11-29T22:06:48.319Z,97039.91
2022-11-29T22:09:17.972Z,97036.66
2022-11-29T22:11:46.402Z,97036.06
2022-11-29T22:14:18.221Z,97031.28
2022-11-29T22:16:49.146Z,97032.53
2022-11-29T22:19:21.092Z,97030.22
2022-11-29T22:21:52.724Z,97032.03
2022-11-29T22:24:23.899Z,97035.09
2022-11-29T22:26:54.617Z,97030.34
2022-11-29T22:29:23.797Z,97032.28
2022-11-29T22:31:54.138Z,97042.06
2022-11-29T22:34:25.137Z,97028.59
2022-11-29T22:36:55.442Z,97025.81
2022-11-29T22:39:25.360Z,97030.72
2022-11-29T22:41:55.097Z,97025.34
2022-11-29T22:44:24.740Z,97008.03
2022-11-29T22:46:53.457Z,97016.97
2022-11-29T22:49:22.050Z,97022.28
2022-11-29T22:51:50.658Z,97027.06
2022-11-29T22:54:20.552Z,97018.56
2022-11-29T22:56:49.424Z,97027.91
2022-11-29T22:59:17.812Z,97030.66
2022-11-29T23:01:46.203Z,97039.31
2022-11-29T23:04:14.721Z,97032.63
2022-11-29T23:06:45.268Z,97023.09
2022-11-29T23:09:16.868Z,97032.88
2022-11-29T23:11:50.979Z,97026.25
2022-11-29T23:14:23.301Z,97035.47
2022-11-29T23:16:51.894Z,97038.03
2022-11-29T23:19:20.767Z,97025.16
2022-11-29T23:21:49.303Z,97028.44
2022-11-29T23:24:18.005Z,97036.78
2022-11-29T23:26:48.919Z,97037.50
2022-11-29T23:29:20.588Z,97029.69
2022-11-29T23:31:50.026Z,97039.97
2022-11-29T23:34:20.080Z,97038.38
2022-11-29T23:36:54.117Z,97036.03
2022-11-29T23:39:22.936Z,97041.28
2022-11-29T23:41:53.763Z,97033.91
2022-11-29T23:44:23.284Z,97034.31
2022-11-29T23:46:51.772Z,97031.66
2022-11-29T23:49:20.281Z,97035.06
2022-11-29T23:51:48.656Z,97035.97
2022-11-29T23:54:16.967Z,97038.06
2022-11-29T23:56:46.411Z,97031.91
2022-11-29T23:59:18.876Z,97034.84
